DGAA/ACC METAR and TAF weather

Enter ICAO airport designator
Station Type Date Time Source
DGAA METAR 2018/12/13 15:00 UTC NOAA

DGAA 131500Z 18008KT 130V200 5000 HZ FEW030CB 29/24 Q1011 NOSIG


Station Type Date Time Source
DGAA Decoded METAR 2018/12/13 15:00 UTC NOAA

Accra, Ghana (DGAA) 05-36N 000-10W 69M
Dec 13, 2018 - 10:00 AM EST / 2018.12.13 1500 UTC
Wind: from the S (180 degrees) at 9 MPH (8 KT) (direction variable):0
Visibility: 3 mile(s):0
Sky conditions: mostly clear
Weather: haze; Cumulonimbus clouds observed
Temperature: 84 F (29 C)
Dew Point: 75 F (24 C)
Relative Humidity: 74%
Pressure (altimeter): 29.85 in. Hg (1011 hPa)
ob: DGAA 131500Z 18008KT 130V200 5000 HZ FEW030CB 29/24 Q1011 NOSIG
cycle: 15

Station Type Date Time Source
DGAA TAF 2018/12/13 12:24 UTC NOAA

TAF TAF DGAA 131100Z 1312/1418 17009KT 5000 HZ FEW028
BECMG 1401/1403 27004KT CAVOK


Example: see airport list